This is the latest recevied weather packets stored in our database for station/object YN1ZGS-13. If no packets are shown the sender has not sent any weather packets the latest 10 day(s).
| Time | Temp. | Humidity | Pressure | Rain* | Wind** | Luminosity | Snow |
|---|---|---|---|---|---|---|---|
| 1778432787 | 31.67° C | 46% | 1011 hPa | 0 mm | - | - | - |
| 1778432187 | 31.67° C | 46% | 1011 hPa | 0 mm | - | - | - |
| 1778431587 | 31.67° C | 47% | 1011 hPa | 0 mm | - | - | - |
| 1778430986 | 31.67° C | 47% | 1011 hPa | 0 mm | - | - | - |
| 1778430386 | 32.22° C | 48% | 1012 hPa | 0 mm | - | - | - |
| 1778429786 | 29.44° C | 55% | 1012 hPa | 0 mm | - | - | - |
| 1778429185 | 30° C | 55% | 1012 hPa | 0 mm | - | - | - |
| 1778428585 | 30° C | 55% | 1012 hPa | 0 mm | - | - | - |
| 1778427985 | 30.56° C | 55% | 1012 hPa | 0 mm | - | - | - |
| 1778427385 | 27.78° C | 60% | 1012 hPa | 0 mm | - | - | - |
| 1778426784 | 28.33° C | 61% | 1012 hPa | 0 mm | - | - | - |
| 1778426184 | 27.22° C | 61% | 1012 hPa | 0 mm | - | - | - |
| 1778425583 | 27.78° C | 61% | 1012 hPa | 0 mm | - | - | - |
| 1778424983 | 27.78° C | 61% | 1012 hPa | 0 mm | - | - | - |
| 1778424383 | 28.33° C | 61% | 1012 hPa | 0 mm | - | - | - |
| 1778423782 | 26.11° C | 66% | 1012 hPa | 0 mm | - | - | - |
| 1778423182 | 25.56° C | 69% | 1012 hPa | 0 mm | - | - | - |
| 1778422582 | 26.11° C | 69% | 1012 hPa | 0 mm | - | - | - |
| 1778421981 | 26.11° C | 69% | 1012 hPa | 0 mm | - | - | - |
| 1778421381 | 26.67° C | 69% | 1012 hPa | 0 mm | - | - | - |
| 1778420781 | 26.67° C | 69% | 1012 hPa | 0 mm | - | - | - |
| 1778420181 | 26.67° C | 69% | 1012 hPa | 0 mm | - | - | - |
| 1778419581 | 27.22° C | 69% | 1012 hPa | 0 mm | - | - | - |
| 1778418980 | 23.33° C | 73% | 1012 hPa | 0 mm | - | - | - |
| 1778418380 | 23.89° C | 73% | 1012 hPa | 0 mm | - | - | - |
* Rain latest hour (hover to see other rain measurements)
** Current wind speed in m/s (hover to see current wind gust speed)